createdAt,value
2019-02-03T00:02:10.101Z,102.67
2019-02-03T00:04:40.403Z,111.80
2019-02-03T00:07:08.501Z,108.72
2019-02-03T00:09:36.550Z,146.18
2019-02-03T00:12:04.711Z,118.82
2019-02-03T00:14:32.721Z,131.10
2019-02-03T00:17:00.689Z,115.35
2019-02-03T00:19:30.418Z,111.57
2019-02-03T00:21:59.475Z,125.05
2019-02-03T00:24:27.413Z,141.47
2019-02-03T00:26:55.343Z,151.25
2019-02-03T00:29:25.661Z,112.55
2019-02-03T00:31:53.565Z,103.07
2019-02-03T00:34:23.769Z,101.47
2019-02-03T00:36:51.676Z,116.25
2019-02-03T00:39:19.596Z,121.35
2019-02-03T00:41:47.638Z,109.27
2019-02-03T00:44:18.544Z,106.75
2019-02-03T00:46:45.551Z,112.97
2019-02-03T00:49:14.271Z,100.00
2019-02-03T00:51:44.597Z,115.55
2019-02-03T00:54:13.675Z,105.07
2019-02-03T00:56:46.773Z,99.75
2019-02-03T00:59:16.257Z,94.80
2019-02-03T01:01:46.499Z,109.83
2019-02-03T01:04:17.061Z,99.85
2019-02-03T01:06:44.946Z,98.12
2019-02-03T01:09:13.910Z,105.70
2019-02-03T01:11:43.838Z,106.22
2019-02-03T01:14:11.773Z,107.32
2019-02-03T01:16:41.812Z,91.12
2019-02-03T01:19:10.387Z,104.47
2019-02-03T01:21:38.265Z,101.80
2019-02-03T01:24:06.175Z,105.47
2019-02-03T01:26:35.186Z,106.43
2019-02-03T01:29:04.006Z,96.53
2019-02-03T01:31:32.444Z,101.80
2019-02-03T01:34:01.668Z,105.63
2019-02-03T01:36:30.123Z,109.27
2019-02-03T01:38:59.590Z,116.17
2019-02-03T01:41:31.449Z,106.30
2019-02-03T01:43:59.370Z,106.12
2019-02-03T01:46:27.246Z,105.43
2019-02-03T01:48:56.360Z,103.32
2019-02-03T01:51:24.227Z,98.72
2019-02-03T01:53:54.661Z,104.90
2019-02-03T01:56:23.062Z,109.10
2019-02-03T01:58:52.925Z,105.90
2019-02-03T02:01:22.168Z,117.82
2019-02-03T02:03:52.459Z,110.15
2019-02-03T02:06:21.113Z,123.62
2019-02-03T02:08:48.991Z,109.55
2019-02-03T02:11:17.157Z,103.60
2019-02-03T02:13:45.048Z,100.20
2019-02-03T02:16:12.958Z,100.95
2019-02-03T02:18:40.975Z,107.87
2019-02-03T02:21:10.035Z,108.00
2019-02-03T02:23:41.758Z,112.47
2019-02-03T02:26:11.451Z,115.10
2019-02-03T02:28:39.350Z,115.28
2019-02-03T02:31:08.570Z,111.52
2019-02-03T02:33:36.808Z,97.37
2019-02-03T02:36:05.905Z,122.50
2019-02-03T02:38:34.254Z,96.57
2019-02-03T02:41:03.230Z,99.92
2019-02-03T02:43:31.446Z,116.55
2019-02-03T02:45:59.362Z,103.27
2019-02-03T02:48:28.538Z,102.78
2019-02-03T02:50:57.025Z,103.15
2019-02-03T02:53:24.869Z,111.30
2019-02-03T02:55:52.786Z,105.60
2019-02-03T02:58:20.633Z,103.95
2019-02-03T03:00:49.667Z,105.78
2019-02-03T03:03:17.546Z,91.02
2019-02-03T03:05:47.573Z,97.75
2019-02-03T03:08:19.373Z,97.22
2019-02-03T03:10:47.918Z,97.78
2019-02-03T03:13:15.906Z,100.70
2019-02-03T03:15:46.169Z,103.07
2019-02-03T03:18:14.095Z,108.75
2019-02-03T03:20:42.074Z,102.00
2019-02-03T03:23:12.147Z,91.78
2019-02-03T03:25:40.131Z,105.32
2019-02-03T03:28:09.586Z,107.15
2019-02-03T03:30:37.542Z,100.07
2019-02-03T03:33:05.516Z,100.75
2019-02-03T03:35:34.241Z,96.45
2019-02-03T03:38:02.579Z,103.00
2019-02-03T03:40:30.497Z,107.03
2019-02-03T03:43:00.345Z,107.47
2019-02-03T03:45:29.553Z,111.50
2019-02-03T03:47:59.398Z,108.57
2019-02-03T03:50:27.499Z,111.52
2019-02-03T03:52:55.473Z,109.65
2019-02-03T03:55:23.705Z,108.72
2019-02-03T03:57:58.739Z,114.42
2019-02-03T04:00:26.841Z,102.50
2019-02-03T04:02:56.916Z,94.52
2019-02-03T04:05:24.882Z,97.80
2019-02-03T04:07:53.118Z,95.42
2019-02-03T04:10:24.064Z,104.25
2019-02-03T04:12:52.524Z,95.62
2019-02-03T04:15:20.951Z,105.95
2019-02-03T04:17:49.350Z,96.70
2019-02-03T04:20:18.672Z,96.87
2019-02-03T04:22:46.659Z,95.67
2019-02-03T04:25:16.055Z,93.22
2019-02-03T04:27:45.060Z,100.05
2019-02-03T04:30:16.956Z,101.42
2019-02-03T04:32:46.109Z,95.30
2019-02-03T04:35:14.438Z,82.67
2019-02-03T04:37:42.362Z,84.45
2019-02-03T04:40:11.637Z,84.70
2019-02-03T04:42:39.894Z,99.95
2019-02-03T04:45:10.592Z,88.97
2019-02-03T04:47:38.534Z,83.42
2019-02-03T04:50:07.082Z,78.07
2019-02-03T04:52:36.181Z,90.22
2019-02-03T04:55:04.873Z,85.57
2019-02-03T04:57:34.783Z,80.17
2019-02-03T05:00:02.726Z,80.30
2019-02-03T05:02:31.964Z,81.53
2019-02-03T05:04:59.845Z,84.60
2019-02-03T05:07:27.761Z,84.47
2019-02-03T05:09:58.825Z,91.02
2019-02-03T05:12:28.303Z,94.75
2019-02-03T05:14:56.302Z,82.22
2019-02-03T05:17:25.798Z,74.58
2019-02-03T05:19:53.686Z,81.20
2019-02-03T05:22:23.701Z,89.10
2019-02-03T05:24:53.561Z,88.60
2019-02-03T05:27:23.972Z,78.25
2019-02-03T05:29:56.187Z,77.82
2019-02-03T05:32:24.195Z,99.32
2019-02-03T05:34:53.604Z,76.05
2019-02-03T05:37:23.570Z,75.78
2019-02-03T05:39:52.285Z,75.70
2019-02-03T05:42:25.116Z,80.80
2019-02-03T05:44:53.345Z,75.62
2019-02-03T05:47:23.350Z,75.70
2019-02-03T05:49:51.280Z,82.25
2019-02-03T05:52:20.416Z,76.05
2019-02-03T05:54:48.308Z,79.75
2019-02-03T05:57:16.235Z,76.67
2019-02-03T05:59:45.736Z,73.78
2019-02-03T06:02:14.655Z,63.45
2019-02-03T06:04:42.568Z,78.15
2019-02-03T06:07:10.533Z,79.30
2019-02-03T06:09:42.216Z,82.42
2019-02-03T06:12:11.316Z,73.02
2019-02-03T06:14:41.405Z,81.70
2019-02-03T06:17:18.068Z,71.60
2019-02-03T06:19:46.002Z,71.07
2019-02-03T06:22:13.963Z,70.57
2019-02-03T06:24:41.868Z,72.47
2019-02-03T06:27:09.783Z,75.42
2019-02-03T06:29:37.753Z,70.72
2019-02-03T06:32:07.666Z,72.60
2019-02-03T06:34:37.371Z,69.62
2019-02-03T06:37:06.396Z,83.30
2019-02-03T06:39:34.300Z,70.47
2019-02-03T06:42:02.241Z,75.12
2019-02-03T06:44:32.237Z,72.40
2019-02-03T06:47:28.294Z,73.28
2019-02-03T06:49:56.207Z,70.87
2019-02-03T06:52:24.237Z,71.42
2019-02-03T06:54:52.168Z,66.60
2019-02-03T06:57:20.041Z,71.75
2019-02-03T06:59:51.264Z,73.67
2019-02-03T07:02:19.292Z,75.35
2019-02-03T07:04:47.220Z,69.97
2019-02-03T07:07:15.133Z,70.08
2019-02-03T07:09:43.957Z,65.65
2019-02-03T07:12:14.550Z,70.55
2019-02-03T07:14:42.749Z,68.50
2019-02-03T07:17:10.588Z,71.70
2019-02-03T07:19:38.487Z,66.30
2019-02-03T07:22:06.372Z,61.60
2019-02-03T07:24:34.216Z,59.80
2019-02-03T07:27:02.044Z,68.52
2019-02-03T07:29:30.163Z,62.50
2019-02-03T07:31:58.286Z,68.35
2019-02-03T07:34:26.176Z,69.95
2019-02-03T07:36:54.067Z,61.92
2019-02-03T07:39:21.962Z,63.75
2019-02-03T07:41:49.842Z,63.68
2019-02-03T07:44:18.062Z,61.92
2019-02-03T07:46:45.956Z,62.55
2019-02-03T07:49:13.796Z,65.05
2019-02-03T07:51:42.775Z,62.60
2019-02-03T07:54:10.603Z,57.88
2019-02-03T07:56:38.462Z,57.90
2019-02-03T07:59:06.308Z,49.65
2019-02-03T08:01:34.165Z,59.38
2019-02-03T08:04:01.984Z,56.25
2019-02-03T08:06:29.869Z,53.52
2019-02-03T08:08:57.706Z,56.40
2019-02-03T08:11:25.543Z,53.50
2019-02-03T08:13:53.394Z,59.13
2019-02-03T08:16:21.449Z,47.62
2019-02-03T08:18:49.309Z,50.30
2019-02-03T08:21:17.249Z,58.75
2019-02-03T08:23:45.103Z,48.80
2019-02-03T08:26:13.005Z,47.58
2019-02-03T08:28:40.850Z,49.48
2019-02-03T08:31:09.148Z,43.40
2019-02-03T08:33:37.028Z,45.67
2019-02-03T08:36:05.657Z,49.45
2019-02-03T08:38:33.507Z,47.23
2019-02-03T08:41:01.321Z,49.55
2019-02-03T08:43:29.196Z,42.38
2019-02-03T08:45:57.037Z,42.90
2019-02-03T08:48:25.102Z,42.15
2019-02-03T08:50:53.124Z,39.73
2019-02-03T08:53:21.108Z,41.28
2019-02-03T08:55:48.947Z,43.70
2019-02-03T08:58:16.813Z,38.67
2019-02-03T09:00:44.651Z,37.42
2019-02-03T09:03:12.925Z,42.33
2019-02-03T09:05:40.825Z,40.20
2019-02-03T09:08:08.725Z,38.92
2019-02-03T09:10:47.790Z,39.85
2019-02-03T09:13:06.211Z,37.73
2019-02-03T09:15:34.112Z,39.40
2019-02-03T09:18:02.423Z,36.05
2019-02-03T09:20:30.875Z,32.80
2019-02-03T09:22:58.767Z,31.25
2019-02-03T09:25:26.634Z,34.73
2019-02-03T09:27:54.828Z,29.25
2019-02-03T09:30:23.748Z,34.08
2019-02-03T09:32:51.943Z,33.30
2019-02-03T09:35:19.805Z,32.95
2019-02-03T09:37:47.855Z,31.73
2019-02-03T09:40:17.366Z,30.37
2019-02-03T09:42:47.118Z,28.52
2019-02-03T09:45:15.430Z,30.72
2019-02-03T09:47:43.621Z,29.98
2019-02-03T09:50:13.261Z,30.55
2019-02-03T09:52:41.097Z,26.10
2019-02-03T09:55:08.965Z,26.07
2019-02-03T09:57:36.829Z,26.87
2019-02-03T10:00:06.174Z,28.80
2019-02-03T10:02:34.126Z,26.30
2019-02-03T10:05:02.023Z,24.75
2019-02-03T10:07:29.967Z,26.77
2019-02-03T10:09:58.128Z,26.10
2019-02-03T10:12:26.011Z,25.17
2019-02-03T10:14:53.901Z,26.75
2019-02-03T10:17:21.809Z,24.18
2019-02-03T10:19:50.014Z,24.07
2019-02-03T10:22:17.873Z,27.65
2019-02-03T10:24:45.749Z,26.12
2019-02-03T10:27:13.610Z,26.35
2019-02-03T10:29:41.451Z,26.23
2019-02-03T10:32:09.321Z,28.17
2019-02-03T10:34:37.542Z,27.25
2019-02-03T10:37:05.465Z,24.90
2019-02-03T10:39:33.390Z,25.60
2019-02-03T10:42:01.278Z,26.73
2019-02-03T10:44:31.481Z,23.73
2019-02-03T10:46:59.944Z,23.42
2019-02-03T10:49:28.081Z,23.55
2019-02-03T10:51:55.964Z,24.47
2019-02-03T10:54:23.805Z,29.85
2019-02-03T10:56:51.761Z,24.92
2019-02-03T10:59:19.702Z,24.35
2019-02-03T11:01:47.543Z,22.93
2019-02-03T11:04:15.389Z,22.50
2019-02-03T11:06:43.670Z,22.40
2019-02-03T11:09:11.510Z,21.60
2019-02-03T11:11:39.552Z,21.97
2019-02-03T11:14:07.573Z,23.70
2019-02-03T11:16:37.749Z,28.40
2019-02-03T11:19:05.668Z,24.40
2019-02-03T11:21:34.258Z,24.20
2019-02-03T11:24:04.756Z,23.70
2019-02-03T11:26:32.405Z,25.97
2019-02-03T11:29:00.345Z,23.02
2019-02-03T11:31:28.338Z,23.50
2019-02-03T11:33:56.443Z,24.90
2019-02-03T11:36:25.666Z,23.02
2019-02-03T11:38:53.645Z,22.82
2019-02-03T11:41:21.926Z,21.75
2019-02-03T11:43:50.717Z,22.70
2019-02-03T11:46:20.179Z,23.85
2019-02-03T11:48:48.045Z,21.23
2019-02-03T11:51:16.623Z,21.65
2019-02-03T11:53:44.492Z,19.67
2019-02-03T11:56:12.699Z,20.40
2019-02-03T11:58:40.637Z,23.50
2019-02-03T12:01:08.635Z,22.20
2019-02-03T12:03:36.636Z,21.12
2019-02-03T12:06:07.812Z,23.05
2019-02-03T12:08:35.711Z,21.40
2019-02-03T12:11:03.955Z,20.37
2019-02-03T12:13:32.113Z,19.02
2019-02-03T12:16:00.036Z,18.87
2019-02-03T12:18:29.758Z,19.48
2019-02-03T12:20:57.691Z,21.15
2019-02-03T12:23:25.625Z,18.87
2019-02-03T12:25:53.541Z,17.60
2019-02-03T12:28:21.524Z,19.20
2019-02-03T12:30:50.701Z,22.10
2019-02-03T12:33:18.648Z,18.20
2019-02-03T12:35:46.574Z,17.15
2019-02-03T12:38:14.599Z,18.10
2019-02-03T12:40:42.526Z,18.85
2019-02-03T12:43:10.444Z,17.67
2019-02-03T12:45:38.413Z,18.70
2019-02-03T12:48:07.971Z,18.77
2019-02-03T12:50:38.298Z,19.10
2019-02-03T12:53:06.890Z,19.12
2019-02-03T12:55:34.933Z,18.35
2019-02-03T12:58:02.909Z,19.42
2019-02-03T13:00:31.840Z,20.17
2019-02-03T13:03:00.031Z,19.05
2019-02-03T13:05:28.031Z,19.90
2019-02-03T13:07:56.182Z,16.60
2019-02-03T13:10:25.469Z,18.52
2019-02-03T13:12:53.514Z,17.62
2019-02-03T13:15:22.688Z,19.70
2019-02-03T13:17:50.529Z,17.40
2019-02-03T13:20:19.770Z,16.93
2019-02-03T13:22:47.672Z,17.95
2019-02-03T13:25:15.789Z,19.20
2019-02-03T13:27:43.646Z,18.05
2019-02-03T13:30:13.523Z,18.00
2019-02-03T13:32:41.398Z,17.80
2019-02-03T13:35:09.415Z,17.23
2019-02-03T13:37:37.676Z,17.32
2019-02-03T13:40:05.822Z,16.55
2019-02-03T13:42:37.443Z,16.65
2019-02-03T13:45:03.341Z,16.73
2019-02-03T13:47:31.254Z,17.57
2019-02-03T13:49:59.218Z,19.50
2019-02-03T13:52:29.541Z,19.62
2019-02-03T13:54:57.173Z,16.48
2019-02-03T13:57:25.027Z,18.57
2019-02-03T13:59:52.904Z,17.20
2019-02-03T14:02:20.798Z,16.50
2019-02-03T14:04:48.676Z,16.37
2019-02-03T14:07:16.927Z,16.65
2019-02-03T14:09:44.747Z,15.28
2019-02-03T14:12:12.699Z,19.98
2019-02-03T14:14:40.727Z,17.32
2019-02-03T14:17:08.586Z,16.60
2019-02-03T14:19:36.519Z,15.75
2019-02-03T14:22:05.185Z,15.68
2019-02-03T14:24:33.307Z,17.87
2019-02-03T14:27:01.248Z,18.30
2019-02-03T14:29:29.168Z,19.02
2019-02-03T14:31:57.043Z,19.42
2019-02-03T14:34:24.888Z,16.00
2019-02-03T14:36:53.204Z,18.32
2019-02-03T14:39:21.075Z,16.95
2019-02-03T14:41:54.958Z,15.60
2019-02-03T14:44:22.790Z,18.32
2019-02-03T14:46:50.697Z,16.57
2019-02-03T14:49:18.945Z,16.15
2019-02-03T14:51:47.109Z,16.30
2019-02-03T14:54:15.043Z,17.55
2019-02-03T14:56:42.939Z,18.20
2019-02-03T14:59:10.820Z,18.17
2019-02-03T15:01:38.818Z,16.30
2019-02-03T15:04:07.100Z,16.35
2019-02-03T15:06:35.172Z,21.68
2019-02-03T15:09:04.027Z,19.82
2019-02-03T15:11:31.875Z,14.75
2019-02-03T15:13:59.767Z,14.40
2019-02-03T15:16:27.677Z,17.30
2019-02-03T15:18:55.609Z,16.27
2019-02-03T15:21:23.842Z,17.02
2019-02-03T15:23:51.765Z,15.65
2019-02-03T15:26:19.778Z,16.67
2019-02-03T15:28:47.735Z,19.05
2019-02-03T15:31:15.561Z,16.62
2019-02-03T15:33:43.444Z,17.82
2019-02-03T15:36:11.613Z,19.95
2019-02-03T15:38:39.466Z,19.17
2019-02-03T15:41:07.369Z,18.75
2019-02-03T15:43:35.265Z,18.70
2019-02-03T15:46:03.248Z,18.20
2019-02-03T15:48:31.170Z,20.25
2019-02-03T15:50:59.422Z,16.73
2019-02-03T15:53:27.320Z,19.30
2019-02-03T15:55:55.343Z,25.75
2019-02-03T15:58:23.439Z,19.37
2019-02-03T16:00:52.216Z,15.48
2019-02-03T16:03:20.060Z,16.73
2019-02-03T16:05:47.986Z,16.15
2019-02-03T16:08:15.946Z,15.53
2019-02-03T16:10:43.826Z,16.80
2019-02-03T16:13:11.658Z,16.37
2019-02-03T16:15:39.550Z,17.07
2019-02-03T16:18:08.222Z,17.77
2019-02-03T16:20:36.186Z,15.30
2019-02-03T16:23:04.307Z,15.58
2019-02-03T16:25:32.340Z,17.30
2019-02-03T16:28:00.205Z,16.05
2019-02-03T16:30:29.149Z,14.98
2019-02-03T16:32:57.371Z,18.73
2019-02-03T16:35:25.240Z,18.32
2019-02-03T16:37:53.193Z,15.20
2019-02-03T16:40:21.913Z,17.10
2019-02-03T16:42:49.845Z,17.15
2019-02-03T16:45:17.701Z,14.78
2019-02-03T16:47:45.579Z,16.40
2019-02-03T16:50:15.281Z,15.40
2019-02-03T16:52:43.216Z,19.55
2019-02-03T16:55:11.213Z,19.32
2019-02-03T16:57:39.126Z,17.60
2019-02-03T17:00:08.425Z,19.23
2019-02-03T17:02:36.302Z,19.23
2019-02-03T17:05:04.742Z,19.30
2019-02-03T17:07:32.639Z,19.82
2019-02-03T17:10:00.527Z,19.10
2019-02-03T17:12:28.567Z,18.30
2019-02-03T17:14:56.518Z,17.80
2019-02-03T17:17:24.452Z,18.25
2019-02-03T17:19:52.302Z,16.10
2019-02-03T17:22:20.150Z,17.10
2019-02-03T17:24:48.433Z,15.60
2019-02-03T17:27:16.306Z,18.60
2019-02-03T17:29:44.258Z,17.10
2019-02-03T17:32:12.170Z,15.35
2019-02-03T17:34:40.079Z,20.75
2019-02-03T17:37:08.061Z,17.10
2019-02-03T17:39:36.074Z,18.00
2019-02-03T17:42:04.011Z,18.57
2019-02-03T17:44:32.112Z,16.55
2019-02-03T17:46:59.998Z,17.65
2019-02-03T17:49:27.913Z,23.07
2019-02-03T17:51:55.770Z,18.95
2019-02-03T17:54:23.648Z,18.37
2019-02-03T17:56:51.862Z,20.50
2019-02-03T17:59:19.719Z,17.48
2019-02-03T18:01:47.595Z,22.20
2019-02-03T18:04:15.488Z,19.80
2019-02-03T18:06:43.498Z,18.73
2019-02-03T18:09:11.412Z,19.95
2019-02-03T18:11:39.703Z,17.48
2019-02-03T18:14:07.603Z,17.32
2019-02-03T18:16:35.628Z,17.57
2019-02-03T18:19:03.557Z,19.70
2019-02-03T18:21:31.592Z,18.27
2019-02-03T18:23:59.519Z,20.80
2019-02-03T18:26:27.476Z,21.62
2019-02-03T18:28:55.393Z,20.70
2019-02-03T18:31:24.525Z,18.52
2019-02-03T18:33:52.410Z,25.60
2019-02-03T18:36:20.394Z,18.95
2019-02-03T18:38:48.883Z,19.77
2019-02-03T18:41:18.003Z,19.10
2019-02-03T18:43:46.078Z,22.50
2019-02-03T18:46:14.056Z,20.68
2019-02-03T18:48:43.576Z,17.30
2019-02-03T18:51:12.111Z,20.80
2019-02-03T18:53:40.021Z,19.60
2019-02-03T18:56:08.136Z,23.77
2019-02-03T18:58:36.625Z,24.00
2019-02-03T19:01:05.369Z,28.20
2019-02-03T19:03:33.404Z,32.40
2019-02-03T19:06:01.320Z,30.25
2019-02-03T19:08:30.020Z,25.80
2019-02-03T19:10:58.086Z,28.17
2019-02-03T19:13:27.908Z,31.15
2019-02-03T19:15:58.521Z,29.00
2019-02-03T19:18:26.581Z,27.75
2019-02-03T19:20:55.638Z,26.15
2019-02-03T19:23:23.762Z,25.68
2019-02-03T19:25:56.715Z,29.70
2019-02-03T19:28:26.793Z,28.30
2019-02-03T19:30:54.677Z,26.10
2019-02-03T19:33:24.683Z,23.00
2019-02-03T19:35:52.706Z,26.95
2019-02-03T19:38:20.718Z,24.50
2019-02-03T19:40:49.132Z,29.57
2019-02-03T19:43:17.699Z,24.57
2019-02-03T19:45:45.614Z,27.95
2019-02-03T19:48:13.643Z,26.87
2019-02-03T19:50:43.222Z,26.70
2019-02-03T19:53:11.224Z,22.30
2019-02-03T19:55:39.181Z,22.65
2019-02-03T19:58:08.831Z,25.72
2019-02-03T20:00:38.278Z,30.25
2019-02-03T20:03:06.654Z,32.25
2019-02-03T20:05:34.606Z,29.77
2019-02-03T20:08:03.689Z,28.77
2019-02-03T20:10:33.811Z,30.60
2019-02-03T20:13:02.154Z,25.10
2019-02-03T20:15:30.436Z,36.65
2019-02-03T20:17:59.574Z,29.23
2019-02-03T20:20:28.851Z,27.48
2019-02-03T20:22:57.390Z,27.32
2019-02-03T20:25:26.233Z,25.17
2019-02-03T20:27:54.143Z,27.05
2019-02-03T20:30:37.180Z,28.30
2019-02-03T20:32:53.908Z,28.15
2019-02-03T20:35:22.413Z,30.52
2019-02-03T20:37:56.432Z,34.15
2019-02-03T20:40:36.134Z,24.72
2019-02-03T20:43:04.333Z,19.40
2019-02-03T20:45:32.863Z,22.80
2019-02-03T20:48:02.651Z,22.85
2019-02-03T20:50:30.819Z,21.55
2019-02-03T20:53:01.312Z,24.57
2019-02-03T20:55:29.201Z,23.18
2019-02-03T20:57:57.151Z,22.58
2019-02-03T21:00:26.744Z,23.00
2019-02-03T21:02:57.091Z,22.25
2019-02-03T21:05:25.071Z,22.95
2019-02-03T21:07:55.565Z,21.60
2019-02-03T21:10:23.601Z,22.13
2019-02-03T21:12:51.570Z,24.50
2019-02-03T21:15:32.509Z,24.25
2019-02-03T21:17:52.034Z,22.15
2019-02-03T21:20:22.293Z,23.52
2019-02-03T21:22:50.320Z,24.98
2019-02-03T21:25:20.232Z,25.70
2019-02-03T21:27:48.865Z,25.02
2019-02-03T21:30:19.438Z,26.02
2019-02-03T21:32:47.435Z,22.50
2019-02-03T21:35:19.083Z,21.68
2019-02-03T21:37:47.214Z,24.15
2019-02-03T21:40:16.910Z,23.67
2019-02-03T21:42:48.382Z,21.48
2019-02-03T21:45:16.301Z,21.97
2019-02-03T21:47:52.053Z,20.27
2019-02-03T21:50:24.851Z,18.60
2019-02-03T21:52:53.909Z,22.40
2019-02-03T21:55:22.279Z,20.82
2019-02-03T21:57:55.295Z,19.52
2019-02-03T22:00:26.598Z,20.88
2019-02-03T22:02:57.315Z,18.35
2019-02-03T22:05:32.376Z,20.10
2019-02-03T22:08:02.357Z,19.65
2019-02-03T22:10:33.969Z,20.35
2019-02-03T22:13:06.994Z,21.62
2019-02-03T22:15:34.997Z,20.40
2019-02-03T22:18:05.412Z,19.77
2019-02-03T22:20:33.677Z,19.92
2019-02-03T22:23:02.090Z,19.32
2019-02-03T22:25:33.564Z,19.00
2019-02-03T22:28:02.685Z,23.85
2019-02-03T22:30:38.142Z,19.90
2019-02-03T22:33:08.779Z,21.60
2019-02-03T22:35:37.049Z,19.05
2019-02-03T22:38:07.730Z,21.17
2019-02-03T22:40:37.288Z,19.30
2019-02-03T22:43:05.411Z,20.08
2019-02-03T22:45:42.810Z,20.97
2019-02-03T22:48:12.999Z,20.70
2019-02-03T22:50:40.820Z,21.12
2019-02-03T22:53:10.466Z,21.12
2019-02-03T22:55:41.578Z,21.90
2019-02-03T22:58:11.343Z,19.92
2019-02-03T23:01:21.140Z,20.45
2019-02-03T23:03:51.531Z,20.20
2019-02-03T23:06:19.465Z,21.93
2019-02-03T23:08:48.943Z,20.85
2019-02-03T23:11:18.024Z,22.20
2019-02-03T23:13:46.008Z,21.77
2019-02-03T23:16:18.338Z,24.15
2019-02-03T23:18:44.882Z,19.77
2019-02-03T23:21:12.744Z,22.17
2019-02-03T23:23:43.675Z,21.15
2019-02-03T23:26:11.437Z,19.48
2019-02-03T23:28:43.050Z,18.77
2019-02-03T23:31:10.940Z,21.70
2019-02-03T23:33:39.953Z,23.45
2019-02-03T23:36:08.905Z,20.88
2019-02-03T23:38:36.903Z,20.70
2019-02-03T23:41:05.063Z,20.52
2019-02-03T23:43:34.393Z,20.52
2019-02-03T23:46:04.789Z,22.42
2019-02-03T23:48:32.771Z,23.25
2019-02-03T23:51:04.774Z,21.40
2019-02-03T23:53:32.983Z,19.17
2019-02-03T23:56:01.332Z,22.17
2019-02-03T23:58:30.426Z,20.97
